sensor_id;sensor_type;location;lat;lon;timestamp;P1;durP1;ratioP1;P2;durP2;ratioP2
64060;SDS011;60147;55.036;73.242;2023-02-15T00:01:45;15.75;;;9.38;;
64060;SDS011;60147;55.036;73.242;2023-02-15T00:04:16;10.68;;;6.55;;
64060;SDS011;60147;55.036;73.242;2023-02-15T00:06:43;22.10;;;9.73;;
64060;SDS011;60147;55.036;73.242;2023-02-15T00:09:14;18.17;;;7.93;;
64060;SDS011;60147;55.036;73.242;2023-02-15T00:11:40;13.07;;;7.60;;
64060;SDS011;60147;55.036;73.242;2023-02-15T00:14:06;21.83;;;6.53;;
64060;SDS011;60147;55.036;73.242;2023-02-15T00:16:33;11.70;;;6.72;;
64060;SDS011;60147;55.036;73.242;2023-02-15T00:18:58;20.25;;;8.85;;
64060;SDS011;60147;55.036;73.242;2023-02-15T00:21:27;16.17;;;9.15;;
64060;SDS011;60147;55.036;73.242;2023-02-15T00:23:55;15.05;;;9.30;;
64060;SDS011;60147;55.036;73.242;2023-02-15T00:26:26;10.02;;;7.90;;
64060;SDS011;60147;55.036;73.242;2023-02-15T00:28:57;25.20;;;12.43;;
64060;SDS011;60147;55.036;73.242;2023-02-15T00:31:27;17.70;;;8.93;;
64060;SDS011;60147;55.036;73.242;2023-02-15T00:34:06;21.17;;;8.98;;
64060;SDS011;60147;55.036;73.242;2023-02-15T00:36:33;9.55;;;5.15;;
64060;SDS011;60147;55.036;73.242;2023-02-15T00:39:01;23.67;;;10.65;;
64060;SDS011;60147;55.036;73.242;2023-02-15T00:41:37;10.10;;;6.13;;
64060;SDS011;60147;55.036;73.242;2023-02-15T00:44:08;13.40;;;8.10;;
64060;SDS011;60147;55.036;73.242;2023-02-15T00:46:34;10.10;;;5.65;;
64060;SDS011;60147;55.036;73.242;2023-02-15T00:49:00;16.10;;;8.25;;
64060;SDS011;60147;55.036;73.242;2023-02-15T00:51:26;24.52;;;6.57;;
64060;SDS011;60147;55.036;73.242;2023-02-15T00:53:52;12.32;;;8.73;;
64060;SDS011;60147;55.036;73.242;2023-02-15T00:56:18;23.55;;;8.88;;
64060;SDS011;60147;55.036;73.242;2023-02-15T00:58:44;14.35;;;8.50;;
64060;SDS011;60147;55.036;73.242;2023-02-15T01:01:16;18.17;;;10.35;;
64060;SDS011;60147;55.036;73.242;2023-02-15T01:03:43;18.02;;;7.97;;
64060;SDS011;60147;55.036;73.242;2023-02-15T01:06:17;17.40;;;9.13;;
64060;SDS011;60147;55.036;73.242;2023-02-15T01:08:53;25.65;;;11.77;;
64060;SDS011;60147;55.036;73.242;2023-02-15T01:11:19;14.25;;;8.52;;
64060;SDS011;60147;55.036;73.242;2023-02-15T01:13:54;25.77;;;9.60;;
64060;SDS011;60147;55.036;73.242;2023-02-15T01:16:30;8.15;;;6.72;;
64060;SDS011;60147;55.036;73.242;2023-02-15T01:18:58;13.65;;;9.43;;
64060;SDS011;60147;55.036;73.242;2023-02-15T01:21:24;13.40;;;8.95;;
64060;SDS011;60147;55.036;73.242;2023-02-15T01:23:51;10.38;;;8.32;;
64060;SDS011;60147;55.036;73.242;2023-02-15T01:26:17;19.33;;;7.65;;
64060;SDS011;60147;55.036;73.242;2023-02-15T01:28:43;23.58;;;12.63;;
64060;SDS011;60147;55.036;73.242;2023-02-15T01:31:11;24.02;;;12.88;;
64060;SDS011;60147;55.036;73.242;2023-02-15T01:33:37;12.70;;;7.57;;
64060;SDS011;60147;55.036;73.242;2023-02-15T01:36:08;31.50;;;12.60;;
64060;SDS011;60147;55.036;73.242;2023-02-15T01:38:35;18.25;;;10.55;;
64060;SDS011;60147;55.036;73.242;2023-02-15T01:41:06;11.02;;;8.35;;
64060;SDS011;60147;55.036;73.242;2023-02-15T01:43:56;14.63;;;10.32;;
64060;SDS011;60147;55.036;73.242;2023-02-15T01:46:24;17.15;;;10.05;;
64060;SDS011;60147;55.036;73.242;2023-02-15T01:48:53;22.52;;;11.40;;
64060;SDS011;60147;55.036;73.242;2023-02-15T01:51:21;25.08;;;13.00;;
64060;SDS011;60147;55.036;73.242;2023-02-15T01:53:55;8.43;;;7.50;;
64060;SDS011;60147;55.036;73.242;2023-02-15T01:56:35;20.20;;;11.65;;
64060;SDS011;60147;55.036;73.242;2023-02-15T01:59:06;19.85;;;10.88;;
64060;SDS011;60147;55.036;73.242;2023-02-15T02:01:34;26.30;;;12.20;;
64060;SDS011;60147;55.036;73.242;2023-02-15T02:06:35;37.05;;;16.17;;
64060;SDS011;60147;55.036;73.242;2023-02-15T02:09:02;33.13;;;19.85;;
64060;SDS011;60147;55.036;73.242;2023-02-15T02:11:28;26.55;;;12.10;;
64060;SDS011;60147;55.036;73.242;2023-02-15T02:13:59;67.72;;;20.67;;
64060;SDS011;60147;55.036;73.242;2023-02-15T02:16:28;31.55;;;12.20;;
64060;SDS011;60147;55.036;73.242;2023-02-15T02:21:45;36.22;;;16.40;;
64060;SDS011;60147;55.036;73.242;2023-02-15T02:40:21;30.55;;;14.65;;
64060;SDS011;60147;55.036;73.242;2023-02-15T02:42:56;29.17;;;12.57;;
64060;SDS011;60147;55.036;73.242;2023-02-15T02:48:04;24.20;;;16.40;;
64060;SDS011;60147;55.036;73.242;2023-02-15T02:50:31;26.15;;;15.35;;
64060;SDS011;60147;55.036;73.242;2023-02-15T02:52:57;48.42;;;18.30;;
64060;SDS011;60147;55.036;73.242;2023-02-15T03:00:34;20.10;;;13.65;;
64060;SDS011;60147;55.036;73.242;2023-02-15T03:03:49;28.30;;;14.48;;
64060;SDS011;60147;55.036;73.242;2023-02-15T03:06:16;33.28;;;14.35;;
64060;SDS011;60147;55.036;73.242;2023-02-15T03:11:11;18.70;;;11.32;;
64060;SDS011;60147;55.036;73.242;2023-02-15T03:13:37;18.27;;;12.80;;
64060;SDS011;60147;55.036;73.242;2023-02-15T03:16:06;25.83;;;13.50;;
64060;SDS011;60147;55.036;73.242;2023-02-15T03:21:47;29.55;;;12.82;;
64060;SDS011;60147;55.036;73.242;2023-02-15T03:24:21;25.90;;;14.18;;
64060;SDS011;60147;55.036;73.242;2023-02-15T03:26:49;31.10;;;15.73;;
64060;SDS011;60147;55.036;73.242;2023-02-15T03:29:17;35.45;;;17.02;;
64060;SDS011;60147;55.036;73.242;2023-02-15T03:31:56;29.27;;;15.23;;
64060;SDS011;60147;55.036;73.242;2023-02-15T03:34:24;31.90;;;15.18;;
64060;SDS011;60147;55.036;73.242;2023-02-15T03:37:05;33.90;;;16.17;;
64060;SDS011;60147;55.036;73.242;2023-02-15T03:39:56;27.80;;;15.40;;
64060;SDS011;60147;55.036;73.242;2023-02-15T03:45:08;21.00;;;11.80;;
64060;SDS011;60147;55.036;73.242;2023-02-15T03:47:46;23.35;;;13.30;;
64060;SDS011;60147;55.036;73.242;2023-02-15T03:50:31;36.47;;;12.85;;
64060;SDS011;60147;55.036;73.242;2023-02-15T03:53:25;25.10;;;13.52;;
64060;SDS011;60147;55.036;73.242;2023-02-15T03:55:54;26.88;;;11.75;;
64060;SDS011;60147;55.036;73.242;2023-02-15T03:58:25;22.95;;;14.95;;
64060;SDS011;60147;55.036;73.242;2023-02-15T04:04:09;17.45;;;12.57;;
64060;SDS011;60147;55.036;73.242;2023-02-15T04:06:36;25.65;;;13.68;;
64060;SDS011;60147;55.036;73.242;2023-02-15T04:09:02;24.35;;;12.18;;
64060;SDS011;60147;55.036;73.242;2023-02-15T04:11:46;22.92;;;12.85;;
64060;SDS011;60147;55.036;73.242;2023-02-15T04:14:12;19.67;;;13.80;;
64060;SDS011;60147;55.036;73.242;2023-02-15T04:16:57;27.48;;;12.95;;
64060;SDS011;60147;55.036;73.242;2023-02-15T04:19:29;25.92;;;14.32;;
64060;SDS011;60147;55.036;73.242;2023-02-15T04:22:13;24.00;;;12.40;;
64060;SDS011;60147;55.036;73.242;2023-02-15T04:24:59;18.73;;;9.00;;
64060;SDS011;60147;55.036;73.242;2023-02-15T04:27:41;28.05;;;13.10;;
64060;SDS011;60147;55.036;73.242;2023-02-15T04:30:08;28.55;;;15.85;;
64060;SDS011;60147;55.036;73.242;2023-02-15T04:32:34;26.73;;;12.85;;
64060;SDS011;60147;55.036;73.242;2023-02-15T04:35:00;18.92;;;12.32;;
64060;SDS011;60147;55.036;73.242;2023-02-15T04:37:26;32.05;;;15.40;;
64060;SDS011;60147;55.036;73.242;2023-02-15T04:39:53;21.48;;;12.38;;
64060;SDS011;60147;55.036;73.242;2023-02-15T04:42:19;31.95;;;14.20;;
64060;SDS011;60147;55.036;73.242;2023-02-15T04:44:54;77.05;;;23.55;;
64060;SDS011;60147;55.036;73.242;2023-02-15T04:47:20;57.65;;;19.38;;
64060;SDS011;60147;55.036;73.242;2023-02-15T04:49:51;43.63;;;18.42;;
64060;SDS011;60147;55.036;73.242;2023-02-15T04:52:17;39.90;;;15.63;;
64060;SDS011;60147;55.036;73.242;2023-02-15T04:54:43;37.22;;;18.23;;
64060;SDS011;60147;55.036;73.242;2023-02-15T04:57:14;40.45;;;17.02;;
64060;SDS011;60147;55.036;73.242;2023-02-15T04:59:40;37.58;;;14.88;;
64060;SDS011;60147;55.036;73.242;2023-02-15T05:02:06;31.52;;;16.48;;
64060;SDS011;60147;55.036;73.242;2023-02-15T05:04:32;35.75;;;16.95;;
64060;SDS011;60147;55.036;73.242;2023-02-15T05:07:08;35.42;;;16.48;;
64060;SDS011;60147;55.036;73.242;2023-02-15T05:09:34;38.67;;;16.75;;
64060;SDS011;60147;55.036;73.242;2023-02-15T05:12:00;32.17;;;15.27;;
64060;SDS011;60147;55.036;73.242;2023-02-15T05:14:25;44.33;;;18.77;;
64060;SDS011;60147;55.036;73.242;2023-02-15T05:16:51;32.95;;;17.38;;
64060;SDS011;60147;55.036;73.242;2023-02-15T05:19:19;39.95;;;17.48;;
64060;SDS011;60147;55.036;73.242;2023-02-15T05:21:45;37.10;;;17.63;;
64060;SDS011;60147;55.036;73.242;2023-02-15T05:24:15;59.53;;;22.05;;
64060;SDS011;60147;55.036;73.242;2023-02-15T05:27:00;32.53;;;16.15;;
64060;SDS011;60147;55.036;73.242;2023-02-15T05:29:44;17.55;;;10.65;;
64060;SDS011;60147;55.036;73.242;2023-02-15T05:32:20;25.23;;;16.55;;
64060;SDS011;60147;55.036;73.242;2023-02-15T05:35:05;40.47;;;19.35;;
64060;SDS011;60147;55.036;73.242;2023-02-15T05:37:31;50.67;;;17.92;;
64060;SDS011;60147;55.036;73.242;2023-02-15T05:39:57;36.25;;;15.98;;
64060;SDS011;60147;55.036;73.242;2023-02-15T05:42:23;35.30;;;15.82;;
64060;SDS011;60147;55.036;73.242;2023-02-15T05:44:49;41.25;;;18.40;;
64060;SDS011;60147;55.036;73.242;2023-02-15T05:47:15;42.55;;;18.00;;
64060;SDS011;60147;55.036;73.242;2023-02-15T05:49:46;36.25;;;17.70;;
64060;SDS011;60147;55.036;73.242;2023-02-15T05:52:11;30.40;;;15.55;;
64060;SDS011;60147;55.036;73.242;2023-02-15T05:54:37;44.55;;;15.90;;
64060;SDS011;60147;55.036;73.242;2023-02-15T05:57:03;40.22;;;14.90;;
64060;SDS011;60147;55.036;73.242;2023-02-15T05:59:29;55.97;;;17.30;;
64060;SDS011;60147;55.036;73.242;2023-02-15T06:01:55;36.33;;;16.42;;
64060;SDS011;60147;55.036;73.242;2023-02-15T06:04:21;51.10;;;19.70;;
64060;SDS011;60147;55.036;73.242;2023-02-15T06:06:47;37.55;;;16.52;;
64060;SDS011;60147;55.036;73.242;2023-02-15T06:09:17;41.17;;;16.80;;
64060;SDS011;60147;55.036;73.242;2023-02-15T06:11:48;50.22;;;16.42;;
64060;SDS011;60147;55.036;73.242;2023-02-15T06:14:17;32.75;;;14.77;;
64060;SDS011;60147;55.036;73.242;2023-02-15T06:16:50;46.53;;;15.65;;
64060;SDS011;60147;55.036;73.242;2023-02-15T06:19:16;31.08;;;13.95;;
64060;SDS011;60147;55.036;73.242;2023-02-15T06:21:43;34.90;;;15.77;;
64060;SDS011;60147;55.036;73.242;2023-02-15T06:24:12;37.97;;;13.93;;
64060;SDS011;60147;55.036;73.242;2023-02-15T06:26:38;43.78;;;16.23;;
64060;SDS011;60147;55.036;73.242;2023-02-15T06:29:14;50.72;;;18.13;;
64060;SDS011;60147;55.036;73.242;2023-02-15T06:31:40;44.70;;;17.17;;
64060;SDS011;60147;55.036;73.242;2023-02-15T06:34:16;44.17;;;18.50;;
64060;SDS011;60147;55.036;73.242;2023-02-15T06:39:12;41.83;;;14.43;;
64060;SDS011;60147;55.036;73.242;2023-02-15T06:44:09;41.03;;;16.30;;
64060;SDS011;60147;55.036;73.242;2023-02-15T06:46:34;62.70;;;18.65;;
64060;SDS011;60147;55.036;73.242;2023-02-15T06:49:00;34.00;;;15.68;;
64060;SDS011;60147;55.036;73.242;2023-02-15T06:51:26;68.75;;;20.67;;
64060;SDS011;60147;55.036;73.242;2023-02-15T06:53:53;54.38;;;21.67;;
64060;SDS011;60147;55.036;73.242;2023-02-15T06:59:18;44.90;;;18.88;;
64060;SDS011;60147;55.036;73.242;2023-02-15T07:01:44;54.72;;;19.52;;
64060;SDS011;60147;55.036;73.242;2023-02-15T07:04:10;56.83;;;17.83;;
64060;SDS011;60147;55.036;73.242;2023-02-15T07:06:36;44.53;;;15.65;;
64060;SDS011;60147;55.036;73.242;2023-02-15T07:09:07;60.85;;;21.73;;
64060;SDS011;60147;55.036;73.242;2023-02-15T07:11:33;79.15;;;23.27;;
64060;SDS011;60147;55.036;73.242;2023-02-15T07:14:17;57.88;;;20.50;;
64060;SDS011;60147;55.036;73.242;2023-02-15T07:16:43;52.45;;;20.67;;
64060;SDS011;60147;55.036;73.242;2023-02-15T07:19:09;44.67;;;18.13;;
64060;SDS011;60147;55.036;73.242;2023-02-15T07:21:45;59.53;;;19.25;;
64060;SDS011;60147;55.036;73.242;2023-02-15T07:24:11;54.95;;;20.77;;
64060;SDS011;60147;55.036;73.242;2023-02-15T07:26:37;47.17;;;16.48;;
64060;SDS011;60147;55.036;73.242;2023-02-15T07:29:08;54.40;;;19.60;;
64060;SDS011;60147;55.036;73.242;2023-02-15T07:31:34;45.00;;;19.90;;
64060;SDS011;60147;55.036;73.242;2023-02-15T07:34:01;51.05;;;17.67;;
64060;SDS011;60147;55.036;73.242;2023-02-15T07:36:37;60.50;;;18.67;;
64060;SDS011;60147;55.036;73.242;2023-02-15T07:39:05;61.00;;;21.60;;
64060;SDS011;60147;55.036;73.242;2023-02-15T07:41:31;48.97;;;17.88;;
64060;SDS011;60147;55.036;73.242;2023-02-15T07:43:57;72.47;;;23.98;;
64060;SDS011;60147;55.036;73.242;2023-02-15T07:46:28;60.33;;;20.15;;
64060;SDS011;60147;55.036;73.242;2023-02-15T07:48:56;72.80;;;20.48;;
64060;SDS011;60147;55.036;73.242;2023-02-15T07:51:22;54.33;;;20.08;;
64060;SDS011;60147;55.036;73.242;2023-02-15T07:53:48;47.13;;;19.58;;
64060;SDS011;60147;55.036;73.242;2023-02-15T07:56:16;47.90;;;16.75;;
64060;SDS011;60147;55.036;73.242;2023-02-15T07:58:42;51.45;;;20.08;;
64060;SDS011;60147;55.036;73.242;2023-02-15T08:01:31;42.40;;;19.52;;
64060;SDS011;60147;55.036;73.242;2023-02-15T08:04:07;41.25;;;17.15;;
64060;SDS011;60147;55.036;73.242;2023-02-15T08:06:37;57.33;;;18.08;;
64060;SDS011;60147;55.036;73.242;2023-02-15T08:09:08;46.55;;;19.17;;
64060;SDS011;60147;55.036;73.242;2023-02-15T08:11:35;41.17;;;18.63;;
64060;SDS011;60147;55.036;73.242;2023-02-15T08:14:11;41.20;;;17.38;;
64060;SDS011;60147;55.036;73.242;2023-02-15T08:16:39;40.25;;;17.52;;
64060;SDS011;60147;55.036;73.242;2023-02-15T08:19:09;45.03;;;17.40;;
64060;SDS011;60147;55.036;73.242;2023-02-15T08:21:39;37.42;;;16.70;;
64060;SDS011;60147;55.036;73.242;2023-02-15T08:24:16;50.13;;;19.95;;
64060;SDS011;60147;55.036;73.242;2023-02-15T08:26:47;44.17;;;16.33;;
64060;SDS011;60147;55.036;73.242;2023-02-15T08:29:14;45.47;;;17.13;;
64060;SDS011;60147;55.036;73.242;2023-02-15T08:31:47;46.78;;;15.25;;
64060;SDS011;60147;55.036;73.242;2023-02-15T08:34:23;49.03;;;16.88;;
64060;SDS011;60147;55.036;73.242;2023-02-15T08:36:49;47.38;;;16.17;;
64060;SDS011;60147;55.036;73.242;2023-02-15T08:39:15;44.17;;;16.98;;
64060;SDS011;60147;55.036;73.242;2023-02-15T08:41:42;34.90;;;14.90;;
64060;SDS011;60147;55.036;73.242;2023-02-15T08:44:08;46.25;;;17.83;;
64060;SDS011;60147;55.036;73.242;2023-02-15T08:46:47;46.47;;;16.23;;
64060;SDS011;60147;55.036;73.242;2023-02-15T08:49:15;46.38;;;17.73;;
64060;SDS011;60147;55.036;73.242;2023-02-15T08:51:42;50.42;;;17.88;;
64060;SDS011;60147;55.036;73.242;2023-02-15T08:54:09;45.00;;;16.35;;
64060;SDS011;60147;55.036;73.242;2023-02-15T08:56:36;38.88;;;15.15;;
64060;SDS011;60147;55.036;73.242;2023-02-15T08:59:19;36.00;;;15.98;;
64060;SDS011;60147;55.036;73.242;2023-02-15T09:01:46;50.72;;;18.17;;
64060;SDS011;60147;55.036;73.242;2023-02-15T09:04:12;41.50;;;16.63;;
64060;SDS011;60147;55.036;73.242;2023-02-15T09:06:42;39.10;;;17.48;;
64060;SDS011;60147;55.036;73.242;2023-02-15T09:09:10;46.50;;;16.27;;
64060;SDS011;60147;55.036;73.242;2023-02-15T09:11:39;37.45;;;15.18;;
64060;SDS011;60147;55.036;73.242;2023-02-15T09:14:16;31.65;;;14.13;;
64060;SDS011;60147;55.036;73.242;2023-02-15T09:16:43;41.35;;;15.18;;
64060;SDS011;60147;55.036;73.242;2023-02-15T09:19:14;30.17;;;14.57;;
64060;SDS011;60147;55.036;73.242;2023-02-15T09:21:50;38.15;;;15.77;;
64060;SDS011;60147;55.036;73.242;2023-02-15T09:24:20;36.70;;;14.57;;
64060;SDS011;60147;55.036;73.242;2023-02-15T09:26:46;39.72;;;14.13;;
64060;SDS011;60147;55.036;73.242;2023-02-15T09:29:14;39.25;;;15.85;;
64060;SDS011;60147;55.036;73.242;2023-02-15T09:31:40;34.88;;;15.57;;
64060;SDS011;60147;55.036;73.242;2023-02-15T09:34:09;31.83;;;14.90;;
64060;SDS011;60147;55.036;73.242;2023-02-15T09:36:36;39.83;;;15.63;;
64060;SDS011;60147;55.036;73.242;2023-02-15T09:41:41;27.48;;;12.52;;
64060;SDS011;60147;55.036;73.242;2023-02-15T09:46:50;31.05;;;14.68;;
64060;SDS011;60147;55.036;73.242;2023-02-15T09:54:44;29.05;;;12.82;;
64060;SDS011;60147;55.036;73.242;2023-02-15T09:57:24;43.28;;;18.00;;
64060;SDS011;60147;55.036;73.242;2023-02-15T10:00:07;48.35;;;20.38;;
64060;SDS011;60147;55.036;73.242;2023-02-15T10:02:52;48.97;;;17.70;;
64060;SDS011;60147;55.036;73.242;2023-02-15T10:08:37;35.67;;;16.48;;
64060;SDS011;60147;55.036;73.242;2023-02-15T10:11:16;39.65;;;16.45;;
64060;SDS011;60147;55.036;73.242;2023-02-15T10:14:17;42.25;;;16.55;;
64060;SDS011;60147;55.036;73.242;2023-02-15T10:17:02;36.55;;;16.20;;
64060;SDS011;60147;55.036;73.242;2023-02-15T10:19:35;46.97;;;17.05;;
64060;SDS011;60147;55.036;73.242;2023-02-15T10:27:55;45.35;;;17.05;;
64060;SDS011;60147;55.036;73.242;2023-02-15T10:33:40;45.72;;;17.73;;
64060;SDS011;60147;55.036;73.242;2023-02-15T10:44:47;71.90;;;30.02;;
64060;SDS011;60147;55.036;73.242;2023-02-15T10:50:20;47.95;;;20.33;;
64060;SDS011;60147;55.036;73.242;2023-02-15T10:55:33;42.88;;;17.90;;
64060;SDS011;60147;55.036;73.242;2023-02-15T11:00:44;46.15;;;18.70;;
64060;SDS011;60147;55.036;73.242;2023-02-15T11:06:08;45.72;;;17.65;;
64060;SDS011;60147;55.036;73.242;2023-02-15T11:08:42;42.90;;;17.08;;
64060;SDS011;60147;55.036;73.242;2023-02-15T11:11:10;47.00;;;16.33;;
64060;SDS011;60147;55.036;73.242;2023-02-15T11:13:50;43.00;;;17.03;;
64060;SDS011;60147;55.036;73.242;2023-02-15T11:16:17;53.75;;;16.27;;
64060;SDS011;60147;55.036;73.242;2023-02-15T11:19:00;47.63;;;15.77;;
64060;SDS011;60147;55.036;73.242;2023-02-15T11:21:33;36.72;;;14.75;;
64060;SDS011;60147;55.036;73.242;2023-02-15T11:24:09;97.93;;;42.00;;
64060;SDS011;60147;55.036;73.242;2023-02-15T11:26:41;142.95;;;59.95;;
64060;SDS011;60147;55.036;73.242;2023-02-15T11:29:11;65.72;;;31.05;;
64060;SDS011;60147;55.036;73.242;2023-02-15T11:31:44;41.70;;;18.67;;
64060;SDS011;60147;55.036;73.242;2023-02-15T11:34:18;38.50;;;16.17;;
64060;SDS011;60147;55.036;73.242;2023-02-15T11:36:55;36.60;;;15.63;;
64060;SDS011;60147;55.036;73.242;2023-02-15T11:39:28;42.88;;;15.93;;
64060;SDS011;60147;55.036;73.242;2023-02-15T11:41:59;37.45;;;11.60;;
64060;SDS011;60147;55.036;73.242;2023-02-15T11:44:33;33.03;;;12.63;;
64060;SDS011;60147;55.036;73.242;2023-02-15T11:47:12;28.50;;;13.53;;
64060;SDS011;60147;55.036;73.242;2023-02-15T11:49:38;65.35;;;21.88;;
64060;SDS011;60147;55.036;73.242;2023-02-15T11:52:13;36.45;;;15.63;;
64060;SDS011;60147;55.036;73.242;2023-02-15T11:54:44;40.53;;;19.08;;
64060;SDS011;60147;55.036;73.242;2023-02-15T12:02:49;36.75;;;16.48;;
64060;SDS011;60147;55.036;73.242;2023-02-15T12:05:17;38.63;;;14.25;;
64060;SDS011;60147;55.036;73.242;2023-02-15T12:08:03;22.58;;;10.85;;
64060;SDS011;60147;55.036;73.242;2023-02-15T12:10:41;26.60;;;11.65;;
64060;SDS011;60147;55.036;73.242;2023-02-15T12:15:40;31.88;;;12.38;;
64060;SDS011;60147;55.036;73.242;2023-02-15T12:18:19;35.72;;;12.50;;
64060;SDS011;60147;55.036;73.242;2023-02-15T12:20:46;26.45;;;11.52;;
64060;SDS011;60147;55.036;73.242;2023-02-15T12:23:21;24.30;;;11.52;;
64060;SDS011;60147;55.036;73.242;2023-02-15T12:28:38;30.52;;;12.50;;
64060;SDS011;60147;55.036;73.242;2023-02-15T12:31:03;27.70;;;11.40;;
64060;SDS011;60147;55.036;73.242;2023-02-15T12:33:41;39.10;;;16.02;;
64060;SDS011;60147;55.036;73.242;2023-02-15T12:36:19;27.00;;;13.32;;
64060;SDS011;60147;55.036;73.242;2023-02-15T12:46:56;31.95;;;12.90;;
64060;SDS011;60147;55.036;73.242;2023-02-15T12:49:23;36.38;;;15.15;;
64060;SDS011;60147;55.036;73.242;2023-02-15T12:52:01;28.48;;;14.25;;
64060;SDS011;60147;55.036;73.242;2023-02-15T12:54:30;29.63;;;16.80;;
64060;SDS011;60147;55.036;73.242;2023-02-15T12:56:57;33.20;;;16.73;;
64060;SDS011;60147;55.036;73.242;2023-02-15T12:59:24;35.15;;;15.07;;
64060;SDS011;60147;55.036;73.242;2023-02-15T13:01:51;39.67;;;16.50;;
64060;SDS011;60147;55.036;73.242;2023-02-15T13:04:25;32.90;;;16.55;;
64060;SDS011;60147;55.036;73.242;2023-02-15T13:06:59;33.75;;;13.80;;
64060;SDS011;60147;55.036;73.242;2023-02-15T13:09:38;32.78;;;15.68;;
64060;SDS011;60147;55.036;73.242;2023-02-15T13:12:20;25.17;;;13.65;;
64060;SDS011;60147;55.036;73.242;2023-02-15T13:14:48;24.77;;;12.40;;
64060;SDS011;60147;55.036;73.242;2023-02-15T13:17:17;33.85;;;14.57;;
64060;SDS011;60147;55.036;73.242;2023-02-15T13:19:50;28.70;;;12.98;;
64060;SDS011;60147;55.036;73.242;2023-02-15T13:22:18;30.50;;;12.88;;
64060;SDS011;60147;55.036;73.242;2023-02-15T13:24:50;30.77;;;15.85;;
64060;SDS011;60147;55.036;73.242;2023-02-15T13:27:18;25.00;;;12.70;;
64060;SDS011;60147;55.036;73.242;2023-02-15T13:29:51;28.60;;;14.50;;
64060;SDS011;60147;55.036;73.242;2023-02-15T13:32:24;29.73;;;12.10;;
64060;SDS011;60147;55.036;73.242;2023-02-15T13:34:57;25.00;;;12.18;;
64060;SDS011;60147;55.036;73.242;2023-02-15T13:40:13;30.85;;;15.10;;
64060;SDS011;60147;55.036;73.242;2023-02-15T13:42:50;33.35;;;14.45;;
64060;SDS011;60147;55.036;73.242;2023-02-15T13:55:38;37.42;;;14.77;;
64060;SDS011;60147;55.036;73.242;2023-02-15T13:58:21;27.88;;;14.32;;
64060;SDS011;60147;55.036;73.242;2023-02-15T14:05:57;30.65;;;15.45;;
64060;SDS011;60147;55.036;73.242;2023-02-15T14:10:59;31.45;;;14.18;;
64060;SDS011;60147;55.036;73.242;2023-02-15T14:16:20;29.77;;;13.07;;
64060;SDS011;60147;55.036;73.242;2023-02-15T14:18:56;36.35;;;14.63;;
64060;SDS011;60147;55.036;73.242;2023-02-15T14:32:18;22.90;;;10.20;;
64060;SDS011;60147;55.036;73.242;2023-02-15T14:34:57;27.55;;;13.43;;
64060;SDS011;60147;55.036;73.242;2023-02-15T14:37:31;30.08;;;12.85;;
64060;SDS011;60147;55.036;73.242;2023-02-15T14:40:08;28.00;;;12.82;;
64060;SDS011;60147;55.036;73.242;2023-02-15T14:48:22;30.42;;;12.90;;
64060;SDS011;60147;55.036;73.242;2023-02-15T14:51:00;34.15;;;15.77;;
64060;SDS011;60147;55.036;73.242;2023-02-15T15:01:28;27.67;;;11.93;;
64060;SDS011;60147;55.036;73.242;2023-02-15T15:06:56;29.77;;;13.68;;
64060;SDS011;60147;55.036;73.242;2023-02-15T15:09:26;33.47;;;14.40;;
64060;SDS011;60147;55.036;73.242;2023-02-15T15:11:54;25.02;;;12.13;;
64060;SDS011;60147;55.036;73.242;2023-02-15T15:14:39;24.85;;;10.45;;
64060;SDS011;60147;55.036;73.242;2023-02-15T15:17:11;30.67;;;12.88;;
64060;SDS011;60147;55.036;73.242;2023-02-15T15:22:22;23.90;;;12.95;;
64060;SDS011;60147;55.036;73.242;2023-02-15T15:50:46;24.52;;;11.15;;
64060;SDS011;60147;55.036;73.242;2023-02-15T15:53:20;27.95;;;11.63;;
64060;SDS011;60147;55.036;73.242;2023-02-15T15:55:47;24.00;;;10.52;;
64060;SDS011;60147;55.036;73.242;2023-02-15T15:58:19;28.15;;;13.10;;
64060;SDS011;60147;55.036;73.242;2023-02-15T16:00:49;24.60;;;10.57;;
64060;SDS011;60147;55.036;73.242;2023-02-15T16:03:27;32.08;;;13.48;;
64060;SDS011;60147;55.036;73.242;2023-02-15T16:05:59;29.10;;;10.75;;
64060;SDS011;60147;55.036;73.242;2023-02-15T16:10:58;27.17;;;11.75;;
64060;SDS011;60147;55.036;73.242;2023-02-15T16:13:29;21.77;;;9.68;;
64060;SDS011;60147;55.036;73.242;2023-02-15T16:16:05;29.85;;;12.15;;
64060;SDS011;60147;55.036;73.242;2023-02-15T16:18:31;29.33;;;13.35;;
64060;SDS011;60147;55.036;73.242;2023-02-15T16:21:14;27.55;;;12.05;;
64060;SDS011;60147;55.036;73.242;2023-02-15T16:26:54;25.30;;;10.30;;
64060;SDS011;60147;55.036;73.242;2023-02-15T16:29:26;31.83;;;11.82;;
64060;SDS011;60147;55.036;73.242;2023-02-15T16:31:59;32.25;;;11.73;;
64060;SDS011;60147;55.036;73.242;2023-02-15T16:34:25;29.48;;;10.65;;
64060;SDS011;60147;55.036;73.242;2023-02-15T16:37:16;28.38;;;14.15;;
64060;SDS011;60147;55.036;73.242;2023-02-15T16:39:47;28.10;;;11.73;;
64060;SDS011;60147;55.036;73.242;2023-02-15T16:42:14;93.85;;;33.70;;
64060;SDS011;60147;55.036;73.242;2023-02-15T16:47:40;23.58;;;9.98;;
64060;SDS011;60147;55.036;73.242;2023-02-15T16:50:07;27.88;;;11.10;;
64060;SDS011;60147;55.036;73.242;2023-02-15T16:52:52;29.90;;;11.80;;
64060;SDS011;60147;55.036;73.242;2023-02-15T16:55:20;30.17;;;12.38;;
64060;SDS011;60147;55.036;73.242;2023-02-15T16:57:57;24.02;;;10.90;;
64060;SDS011;60147;55.036;73.242;2023-02-15T17:00:25;29.67;;;12.30;;
64060;SDS011;60147;55.036;73.242;2023-02-15T17:02:53;20.17;;;11.00;;
64060;SDS011;60147;55.036;73.242;2023-02-15T17:05:20;25.65;;;11.13;;
64060;SDS011;60147;55.036;73.242;2023-02-15T17:10:41;21.63;;;12.50;;
64060;SDS011;60147;55.036;73.242;2023-02-15T17:13:17;22.83;;;11.02;;
64060;SDS011;60147;55.036;73.242;2023-02-15T17:18:30;26.45;;;12.18;;
64060;SDS011;60147;55.036;73.242;2023-02-15T17:20:57;28.63;;;11.40;;
64060;SDS011;60147;55.036;73.242;2023-02-15T17:23:35;23.05;;;10.77;;
64060;SDS011;60147;55.036;73.242;2023-02-15T17:26:10;19.67;;;9.45;;
64060;SDS011;60147;55.036;73.242;2023-02-15T17:28:36;28.42;;;9.93;;
64060;SDS011;60147;55.036;73.242;2023-02-15T17:31:12;28.55;;;11.88;;
64060;SDS011;60147;55.036;73.242;2023-02-15T17:33:49;20.42;;;10.82;;
64060;SDS011;60147;55.036;73.242;2023-02-15T17:36:22;27.98;;;12.10;;
64060;SDS011;60147;55.036;73.242;2023-02-15T17:41:27;31.42;;;10.55;;
64060;SDS011;60147;55.036;73.242;2023-02-15T17:43:58;29.00;;;12.23;;
64060;SDS011;60147;55.036;73.242;2023-02-15T17:46:24;21.25;;;9.02;;
64060;SDS011;60147;55.036;73.242;2023-02-15T17:48:54;22.55;;;10.20;;
64060;SDS011;60147;55.036;73.242;2023-02-15T17:51:21;24.35;;;11.63;;
64060;SDS011;60147;55.036;73.242;2023-02-15T17:53:58;31.13;;;13.85;;
64060;SDS011;60147;55.036;73.242;2023-02-15T17:56:42;24.80;;;12.13;;
64060;SDS011;60147;55.036;73.242;2023-02-15T17:59:08;25.27;;;12.95;;
64060;SDS011;60147;55.036;73.242;2023-02-15T18:01:47;23.58;;;12.18;;